Walnut Park, California
Current Conditions -  °F | °C
As of 11:47 PM on Thursday 30 Oct 2014 (Local Time) from KCQT Reporting Station
Scattered Clouds Scattered Clouds  
Wind Chill: 65°   Ceiling: Unl
Heat Index: 65°   Visibility: 10mi
Dew Point: 60°   Wind: 0mph
Humidity: 84%   Direction: NA
Pressure: 29.96"   Gusts: NA
Location:  33.977°N, 118.217°W
Report Text: KCQT 310647Z AUTO 00000KT 10SM SCT013 18/16 A2996 RMK AO2 SLP143 T01830156
Loading
Personal Weather Stations






























Interactive Weather Map
Tropical Storm Tracking
New forecast layout! Learn more

10-Day Weather Forecast

Advertisements
Track Severe Weather on mobile